Aérodrome :
LOGIN :

S'inscrire | Disclaimer

   EN    FR    IT 

 










Légende :    VFR   VFR Marginal   IFR   IFR Intensif   IFR Très Intensif
Visi : 
Plafond : 
>= 8 km
>= 3000ft
5 à 8 km
1000 à 3000 ft
1500m à 5 km
500 à 1000 ft
800 à 1500m
200 à 500 ft
< 800m
< 200 ft
Symboles :   Orages  Brouillard  Fortes neiges  Fortes précipitations  Vent > 20 kt
SIGMETs :   Divers  Orages  Givrage  Turbulence  Onde Orograph.  Cendres Volcan.







- Altitude de l'aérodrome : 495 ft
- Code IATA : BUD


LHBP - Budapest Ferihegy

DERNIER METAR :
  • 181600Z 31012KT CAVOK 08/01 Q1016 NOSIG

METARs EXPIRÉS :
  • 181530Z 31014KT CAVOK 09/01 Q1016 NOSIG
  • 181500Z 31013KT CAVOK 09/01 Q1015 NOSIG
  • 181430Z 31012KT CAVOK 09/02 Q1015 NOSIG
  • 181400Z 30015KT CAVOK 09/02 Q1015 NOSIG
  • 181330Z 31013KT CAVOK 09/02 Q1015 NOSIG

TAF TAF LHBP
Valide du 18 à 12h jusqu'au 19 à 12h UTC


181115Z 1812/1912 32016G28KT CAVOK
BECMG 1815/1818 31009KT
TEMPO 1822/1907 34004KT
Pas de NOTAMs connus pour ce terrain.
1 SIGMET publié pour la FIR Budapest (LHCC) :
 
Givrage fort
LHCC SIGMET 01 VALID 181610/181810 LHBP
LHCC BUDAPEST FIR SEV ICE OBS WI N4750 E01852 - N4750 E01935 - N4710 E01915 - N4710 E01815 - N4750 E01852 7000FT/FL170 MOV ENE NC=



MET'MAP, la Météo Aéronautique d'un coup d'oeil ! - Copyright ORBIFLY Décembre 2007 - Disclaimer

ORBIFLY MET'MAP TEAM :

Programmation & Développement : Alexandra Zaïnal
Conception & Développement : Baudouin d'Aumeries
Co-Programmation & Développement : Marc-Olivier Méhu
Soutien technique & logistique : Manuel Goepfert

Contact : metmap@orbifly.com




SOURCES & CREDITS :

   NOAA